sensor_id;sensor_type;location;lat;lon;timestamp;pressure;altitude;pressure_sealevel;temperature;humidity
6942;BME280;3510;43.200;27.920;2023-10-08T00:00:22;101129.69;;;16.81;57.34
6942;BME280;3510;43.200;27.920;2023-10-08T00:03:03;101132.41;;;16.84;56.00
6942;BME280;3510;43.200;27.920;2023-10-08T00:05:34;101128.03;;;16.95;55.48
6942;BME280;3510;43.200;27.920;2023-10-08T00:08:01;101117.75;;;16.80;54.55
6942;BME280;3510;43.200;27.920;2023-10-08T00:10:33;101117.34;;;17.00;52.40
6942;BME280;3510;43.200;27.920;2023-10-08T00:13:01;101114.22;;;17.04;51.22
6942;BME280;3510;43.200;27.920;2023-10-08T00:15:28;101110.00;;;17.18;49.63
6942;BME280;3510;43.200;27.920;2023-10-08T00:17:57;101106.19;;;17.25;48.52
6942;BME280;3510;43.200;27.920;2023-10-08T00:20:24;101106.91;;;17.37;47.71
6942;BME280;3510;43.200;27.920;2023-10-08T00:23:02;101110.19;;;17.49;47.17
6942;BME280;3510;43.200;27.920;2023-10-08T00:25:32;101117.06;;;17.50;46.67
6942;BME280;3510;43.200;27.920;2023-10-08T00:28:07;101105.72;;;17.45;47.20
6942;BME280;3510;43.200;27.920;2023-10-08T00:30:38;101107.56;;;17.48;47.38
6942;BME280;3510;43.200;27.920;2023-10-08T00:33:05;101105.25;;;17.37;47.62
6942;BME280;3510;43.200;27.920;2023-10-08T00:35:36;101106.56;;;17.17;46.94
6942;BME280;3510;43.200;27.920;2023-10-08T00:38:03;101099.50;;;17.27;46.87
6942;BME280;3510;43.200;27.920;2023-10-08T00:40:39;101092.78;;;17.14;46.96
6942;BME280;3510;43.200;27.920;2023-10-08T00:43:10;101086.75;;;16.99;47.93
6942;BME280;3510;43.200;27.920;2023-10-08T00:45:38;101075.09;;;16.89;50.36
6942;BME280;3510;43.200;27.920;2023-10-08T00:48:11;101082.50;;;16.59;53.01
6942;BME280;3510;43.200;27.920;2023-10-08T00:50:41;101078.81;;;16.54;53.38
6942;BME280;3510;43.200;27.920;2023-10-08T00:53:09;101071.94;;;16.53;52.67
6942;BME280;3510;43.200;27.920;2023-10-08T00:55:46;101066.19;;;16.29;52.47
6942;BME280;3510;43.200;27.920;2023-10-08T00:58:19;101066.06;;;16.28;51.59
6942;BME280;3510;43.200;27.920;2023-10-08T01:00:52;101068.38;;;16.11;50.75
6942;BME280;3510;43.200;27.920;2023-10-08T01:03:25;101062.81;;;16.04;51.99
6942;BME280;3510;43.200;27.920;2023-10-08T01:05:52;101071.09;;;16.01;51.74
6942;BME280;3510;43.200;27.920;2023-10-08T01:08:19;101056.84;;;16.16;52.42
6942;BME280;3510;43.200;27.920;2023-10-08T01:11:00;101061.75;;;16.13;53.08
6942;BME280;3510;43.200;27.920;2023-10-08T01:13:43;101072.09;;;16.03;54.28
6942;BME280;3510;43.200;27.920;2023-10-08T01:16:12;101066.13;;;16.03;55.26
6942;BME280;3510;43.200;27.920;2023-10-08T01:18:38;101056.84;;;16.03;55.79
6942;BME280;3510;43.200;27.920;2023-10-08T01:21:08;101060.38;;;16.18;56.08
6942;BME280;3510;43.200;27.920;2023-10-08T01:23:44;101047.69;;;16.18;57.30
6942;BME280;3510;43.200;27.920;2023-10-08T01:26:12;101058.22;;;16.11;57.53
6942;BME280;3510;43.200;27.920;2023-10-08T01:28:40;101048.78;;;16.22;56.54
6942;BME280;3510;43.200;27.920;2023-10-08T01:31:09;101044.97;;;16.29;55.02
6942;BME280;3510;43.200;27.920;2023-10-08T01:33:37;101034.41;;;16.49;52.86
6942;BME280;3510;43.200;27.920;2023-10-08T01:36:11;101038.31;;;16.57;51.63
6942;BME280;3510;43.200;27.920;2023-10-08T01:38:39;101040.31;;;16.75;51.31
6942;BME280;3510;43.200;27.920;2023-10-08T01:41:08;101030.63;;;16.69;50.07
6942;BME280;3510;43.200;27.920;2023-10-08T01:43:44;101026.81;;;16.76;49.17
6942;BME280;3510;43.200;27.920;2023-10-08T01:46:11;101025.34;;;16.79;48.08
6942;BME280;3510;43.200;27.920;2023-10-08T01:48:38;101013.91;;;16.86;46.89
6942;BME280;3510;43.200;27.920;2023-10-08T01:51:04;101006.34;;;17.01;45.49
6942;BME280;3510;43.200;27.920;2023-10-08T01:53:35;101011.81;;;17.07;45.64
6942;BME280;3510;43.200;27.920;2023-10-08T01:56:01;101013.88;;;16.99;45.32
6942;BME280;3510;43.200;27.920;2023-10-08T01:58:30;101006.06;;;16.96;45.05
6942;BME280;3510;43.200;27.920;2023-10-08T02:00:58;101005.75;;;17.05;45.38
6942;BME280;3510;43.200;27.920;2023-10-08T02:03:25;100997.88;;;17.15;44.87
6942;BME280;3510;43.200;27.920;2023-10-08T02:05:52;101007.78;;;17.10;45.86
6942;BME280;3510;43.200;27.920;2023-10-08T02:08:24;101012.53;;;16.91;47.32
6942;BME280;3510;43.200;27.920;2023-10-08T02:10:51;101007.72;;;16.96;49.11
6942;BME280;3510;43.200;27.920;2023-10-08T02:13:18;101005.00;;;16.79;48.80
6942;BME280;3510;43.200;27.920;2023-10-08T02:15:47;100999.06;;;16.79;48.11
6942;BME280;3510;43.200;27.920;2023-10-08T02:18:16;100994.84;;;16.79;48.25
6942;BME280;3510;43.200;27.920;2023-10-08T02:20:43;100991.16;;;16.74;49.46
6942;BME280;3510;43.200;27.920;2023-10-08T02:23:09;100989.28;;;16.58;49.96
6942;BME280;3510;43.200;27.920;2023-10-08T02:25:37;100980.06;;;16.60;49.87
6942;BME280;3510;43.200;27.920;2023-10-08T02:28:05;100982.06;;;16.51;50.72
6942;BME280;3510;43.200;27.920;2023-10-08T02:30:33;100978.34;;;16.46;51.70
6942;BME280;3510;43.200;27.920;2023-10-08T02:33:01;100978.75;;;16.39;51.14
6942;BME280;3510;43.200;27.920;2023-10-08T02:35:27;100975.44;;;16.40;50.37
6942;BME280;3510;43.200;27.920;2023-10-08T02:37:54;100977.56;;;16.47;49.51
6942;BME280;3510;43.200;27.920;2023-10-08T02:40:21;100984.31;;;16.47;49.21
6942;BME280;3510;43.200;27.920;2023-10-08T02:42:52;100978.72;;;16.65;48.55
6942;BME280;3510;43.200;27.920;2023-10-08T02:45:23;100975.13;;;16.62;48.26
6942;BME280;3510;43.200;27.920;2023-10-08T02:47:50;100979.78;;;16.69;48.19
6942;BME280;3510;43.200;27.920;2023-10-08T02:50:19;100979.09;;;16.85;47.28
6942;BME280;3510;43.200;27.920;2023-10-08T02:52:47;100976.66;;;16.86;46.24
6942;BME280;3510;43.200;27.920;2023-10-08T02:55:15;100971.81;;;17.04;44.86
6942;BME280;3510;43.200;27.920;2023-10-08T02:57:53;100974.41;;;17.19;44.43
6942;BME280;3510;43.200;27.920;2023-10-08T03:00:21;100969.75;;;17.27;43.97
6942;BME280;3510;43.200;27.920;2023-10-08T03:02:52;100965.94;;;17.48;43.60
6942;BME280;3510;43.200;27.920;2023-10-08T03:05:20;100956.16;;;17.54;43.20
6942;BME280;3510;43.200;27.920;2023-10-08T03:07:48;100957.91;;;17.70;42.95
6942;BME280;3510;43.200;27.920;2023-10-08T03:10:16;100954.59;;;17.86;42.49
6942;BME280;3510;43.200;27.920;2023-10-08T03:12:44;100963.09;;;17.86;42.44
6942;BME280;3510;43.200;27.920;2023-10-08T03:15:12;100956.19;;;17.99;42.00
6942;BME280;3510;43.200;27.920;2023-10-08T03:17:39;100946.50;;;17.93;41.88
6942;BME280;3510;43.200;27.920;2023-10-08T03:20:17;100950.34;;;18.01;41.76
6942;BME280;3510;43.200;27.920;2023-10-08T03:22:59;100949.84;;;18.07;41.59
6942;BME280;3510;43.200;27.920;2023-10-08T03:25:30;100943.94;;;18.08;41.77
6942;BME280;3510;43.200;27.920;2023-10-08T03:27:58;100943.16;;;17.94;42.04
6942;BME280;3510;43.200;27.920;2023-10-08T03:30:25;100948.63;;;18.00;42.10
6942;BME280;3510;43.200;27.920;2023-10-08T03:32:51;100927.25;;;17.98;41.79
6942;BME280;3510;43.200;27.920;2023-10-08T03:35:20;100926.69;;;17.87;42.13
6942;BME280;3510;43.200;27.920;2023-10-08T03:37:53;100924.03;;;17.86;42.12
6942;BME280;3510;43.200;27.920;2023-10-08T03:40:41;100920.16;;;17.93;42.18
6942;BME280;3510;43.200;27.920;2023-10-08T03:43:08;100928.69;;;17.78;42.38
6942;BME280;3510;43.200;27.920;2023-10-08T03:45:44;100925.34;;;17.79;42.53
6942;BME280;3510;43.200;27.920;2023-10-08T03:48:24;100927.78;;;17.63;42.74
6942;BME280;3510;43.200;27.920;2023-10-08T03:50:55;100910.06;;;17.79;42.60
6942;BME280;3510;43.200;27.920;2023-10-08T03:53:31;100918.88;;;17.84;42.47
6942;BME280;3510;43.200;27.920;2023-10-08T03:56:03;100918.50;;;17.93;42.19
6942;BME280;3510;43.200;27.920;2023-10-08T03:58:31;100915.78;;;17.75;42.48
6942;BME280;3510;43.200;27.920;2023-10-08T04:01:03;100912.34;;;17.75;42.74
6942;BME280;3510;43.200;27.920;2023-10-08T04:03:33;100904.00;;;17.62;43.01
6942;BME280;3510;43.200;27.920;2023-10-08T04:06:23;100907.06;;;17.72;42.77
6942;BME280;3510;43.200;27.920;2023-10-08T04:08:54;100905.00;;;17.79;42.78
6942;BME280;3510;43.200;27.920;2023-10-08T04:11:31;100906.81;;;17.67;43.05
6942;BME280;3510;43.200;27.920;2023-10-08T04:14:00;100905.50;;;17.59;43.27
6942;BME280;3510;43.200;27.920;2023-10-08T04:16:27;100907.34;;;17.61;43.10
6942;BME280;3510;43.200;27.920;2023-10-08T04:18:54;100918.31;;;17.60;43.29
6942;BME280;3510;43.200;27.920;2023-10-08T04:21:21;100913.75;;;17.70;43.08
6942;BME280;3510;43.200;27.920;2023-10-08T04:23:52;100915.44;;;17.69;43.09
6942;BME280;3510;43.200;27.920;2023-10-08T04:26:22;100904.63;;;17.73;43.09
6942;BME280;3510;43.200;27.920;2023-10-08T04:28:51;100917.34;;;17.73;43.14
6942;BME280;3510;43.200;27.920;2023-10-08T04:31:22;100908.25;;;17.77;43.03
6942;BME280;3510;43.200;27.920;2023-10-08T04:33:53;100907.72;;;17.82;43.02
6942;BME280;3510;43.200;27.920;2023-10-08T04:36:19;100906.31;;;17.87;42.71
6942;BME280;3510;43.200;27.920;2023-10-08T04:38:46;100902.16;;;17.89;42.70
6942;BME280;3510;43.200;27.920;2023-10-08T04:41:19;100895.56;;;18.08;42.49
6942;BME280;3510;43.200;27.920;2023-10-08T04:43:47;100910.16;;;17.96;42.68
6942;BME280;3510;43.200;27.920;2023-10-08T04:46:16;100895.59;;;17.93;42.62
6942;BME280;3510;43.200;27.920;2023-10-08T04:49:05;100898.56;;;17.86;42.58
6942;BME280;3510;43.200;27.920;2023-10-08T04:51:33;100902.69;;;17.99;42.89
6942;BME280;3510;43.200;27.920;2023-10-08T04:54:08;100903.19;;;18.08;42.20
6942;BME280;3510;43.200;27.920;2023-10-08T04:56:35;100904.53;;;18.01;43.00
6942;BME280;3510;43.200;27.920;2023-10-08T04:59:04;100898.81;;;17.90;43.61
6942;BME280;3510;43.200;27.920;2023-10-08T05:01:32;100898.75;;;17.89;44.16
6942;BME280;3510;43.200;27.920;2023-10-08T05:04:06;100897.19;;;17.91;44.81
6942;BME280;3510;43.200;27.920;2023-10-08T05:06:48;100898.75;;;17.89;45.44
6942;BME280;3510;43.200;27.920;2023-10-08T05:09:26;100897.94;;;17.90;45.42
6942;BME280;3510;43.200;27.920;2023-10-08T05:12:05;100895.59;;;17.93;44.40
6942;BME280;3510;43.200;27.920;2023-10-08T05:14:36;100886.88;;;18.04;43.94
6942;BME280;3510;43.200;27.920;2023-10-08T05:17:12;100898.00;;;18.21;43.50
6942;BME280;3510;43.200;27.920;2023-10-08T05:19:47;100890.88;;;18.47;42.58
6942;BME280;3510;43.200;27.920;2023-10-08T05:22:21;100893.91;;;18.56;42.05
6942;BME280;3510;43.200;27.920;2023-10-08T05:25:09;100906.47;;;18.53;42.38
6942;BME280;3510;43.200;27.920;2023-10-08T05:27:51;100895.75;;;18.58;42.03
6942;BME280;3510;43.200;27.920;2023-10-08T05:30:34;100900.03;;;18.59;42.01
6942;BME280;3510;43.200;27.920;2023-10-08T05:33:19;100887.53;;;18.64;41.98
6942;BME280;3510;43.200;27.920;2023-10-08T05:36:12;100890.41;;;18.70;41.53
6942;BME280;3510;43.200;27.920;2023-10-08T05:38:43;100888.63;;;18.84;41.61
6942;BME280;3510;43.200;27.920;2023-10-08T05:41:14;100887.25;;;18.91;41.94
6942;BME280;3510;43.200;27.920;2023-10-08T05:43:51;100880.19;;;18.85;42.03
6942;BME280;3510;43.200;27.920;2023-10-08T05:46:31;100884.31;;;18.99;42.07
6942;BME280;3510;43.200;27.920;2023-10-08T05:49:13;100880.22;;;19.19;41.96
6942;BME280;3510;43.200;27.920;2023-10-08T05:51:52;100882.50;;;19.31;42.04
6942;BME280;3510;43.200;27.920;2023-10-08T05:54:32;100886.09;;;19.34;42.41
6942;BME280;3510;43.200;27.920;2023-10-08T05:57:12;100886.34;;;19.57;42.74
6942;BME280;3510;43.200;27.920;2023-10-08T05:59:50;100883.19;;;19.79;42.06
6942;BME280;3510;43.200;27.920;2023-10-08T06:02:40;100890.84;;;19.97;40.93
6942;BME280;3510;43.200;27.920;2023-10-08T06:05:26;100884.41;;;20.05;41.29
6942;BME280;3510;43.200;27.920;2023-10-08T06:07:58;100887.19;;;20.10;40.82
6942;BME280;3510;43.200;27.920;2023-10-08T06:10:36;100886.97;;;20.23;41.04
6942;BME280;3510;43.200;27.920;2023-10-08T06:13:10;100882.72;;;20.23;41.42
6942;BME280;3510;43.200;27.920;2023-10-08T06:15:39;100886.06;;;20.40;39.80
6942;BME280;3510;43.200;27.920;2023-10-08T06:18:10;100891.75;;;20.52;39.44
6942;BME280;3510;43.200;27.920;2023-10-08T06:20:39;100873.94;;;20.73;39.76
6942;BME280;3510;43.200;27.920;2023-10-08T06:23:08;100870.75;;;20.98;39.71
6942;BME280;3510;43.200;27.920;2023-10-08T06:25:34;100862.06;;;20.95;39.36
6942;BME280;3510;43.200;27.920;2023-10-08T06:28:12;100805.34;;;20.65;39.05
6942;BME280;3510;43.200;27.920;2023-10-08T06:30:40;100850.25;;;21.18;38.44
6942;BME280;3510;43.200;27.920;2023-10-08T06:33:07;100854.41;;;21.35;37.88
6942;BME280;3510;43.200;27.920;2023-10-08T06:35:34;100862.06;;;21.55;37.84
6942;BME280;3510;43.200;27.920;2023-10-08T06:38:03;100856.94;;;21.55;36.85
6942;BME280;3510;43.200;27.920;2023-10-08T06:40:43;100822.63;;;21.51;36.49
6942;BME280;3510;43.200;27.920;2023-10-08T06:43:10;100835.41;;;21.72;37.09
6942;BME280;3510;43.200;27.920;2023-10-08T06:45:41;100846.88;;;22.03;37.07
6942;BME280;3510;43.200;27.920;2023-10-08T06:48:08;100724.91;;;21.40;36.21
6942;BME280;3510;43.200;27.920;2023-10-08T06:50:35;100842.94;;;22.12;35.95
6942;BME280;3510;43.200;27.920;2023-10-08T06:53:04;100841.47;;;22.17;35.60
6942;BME280;3510;43.200;27.920;2023-10-08T06:55:33;100825.41;;;22.45;35.58
6942;BME280;3510;43.200;27.920;2023-10-08T06:58:01;100818.56;;;22.46;35.08
6942;BME280;3510;43.200;27.920;2023-10-08T07:00:42;100815.72;;;22.38;35.68
6942;BME280;3510;43.200;27.920;2023-10-08T07:03:23;100781.53;;;22.38;34.88
6942;BME280;3510;43.200;27.920;2023-10-08T07:05:51;100835.03;;;22.77;34.96
6942;BME280;3510;43.200;27.920;2023-10-08T07:08:25;100823.41;;;22.86;35.20
6942;BME280;3510;43.200;27.920;2023-10-08T07:10:53;100807.81;;;23.04;34.85
6942;BME280;3510;43.200;27.920;2023-10-08T07:13:22;100814.56;;;23.28;35.03
6942;BME280;3510;43.200;27.920;2023-10-08T07:15:50;100810.47;;;23.33;35.38
6942;BME280;3510;43.200;27.920;2023-10-08T07:18:18;100814.38;;;23.49;34.27
6942;BME280;3510;43.200;27.920;2023-10-08T07:20:51;100806.22;;;23.62;33.52
6942;BME280;3510;43.200;27.920;2023-10-08T07:23:20;100804.97;;;23.49;33.91
6942;BME280;3510;43.200;27.920;2023-10-08T07:25:53;100799.59;;;23.67;34.19
6942;BME280;3510;43.200;27.920;2023-10-08T07:28:24;100797.91;;;23.69;33.28
6942;BME280;3510;43.200;27.920;2023-10-08T07:30:52;100802.34;;;23.73;33.38
6942;BME280;3510;43.200;27.920;2023-10-08T07:33:20;100749.78;;;23.65;33.07
6942;BME280;3510;43.200;27.920;2023-10-08T07:35:51;100794.22;;;23.88;32.91
6942;BME280;3510;43.200;27.920;2023-10-08T07:38:25;100769.53;;;23.95;32.97
6942;BME280;3510;43.200;27.920;2023-10-08T07:40:55;100769.50;;;23.93;33.20
6942;BME280;3510;43.200;27.920;2023-10-08T07:43:22;100766.84;;;24.20;32.75
6942;BME280;3510;43.200;27.920;2023-10-08T07:45:50;100765.63;;;24.37;32.75
6942;BME280;3510;43.200;27.920;2023-10-08T07:48:20;100749.16;;;24.32;33.17
6942;BME280;3510;43.200;27.920;2023-10-08T07:50:48;100755.69;;;24.50;32.47
6942;BME280;3510;43.200;27.920;2023-10-08T07:53:16;100729.72;;;24.41;32.71
6942;BME280;3510;43.200;27.920;2023-10-08T07:55:45;100755.22;;;24.65;32.51
6942;BME280;3510;43.200;27.920;2023-10-08T07:58:15;100748.56;;;24.73;32.09
6942;BME280;3510;43.200;27.920;2023-10-08T08:00:43;100748.22;;;24.94;32.87
6942;BME280;3510;43.200;27.920;2023-10-08T08:03:19;100749.66;;;25.16;32.37
6942;BME280;3510;43.200;27.920;2023-10-08T08:05:46;100755.19;;;25.32;32.19
6942;BME280;3510;43.200;27.920;2023-10-08T08:08:14;100688.63;;;24.78;30.13
6942;BME280;3510;43.200;27.920;2023-10-08T08:10:44;100751.25;;;25.10;29.62
6942;BME280;3510;43.200;27.920;2023-10-08T08:13:11;100752.22;;;25.14;30.18
6942;BME280;3510;43.200;27.920;2023-10-08T08:15:40;100739.56;;;25.25;29.94
6942;BME280;3510;43.200;27.920;2023-10-08T08:18:10;100730.41;;;25.38;30.07
6942;BME280;3510;43.200;27.920;2023-10-08T08:20:48;100742.94;;;25.60;29.42
6942;BME280;3510;43.200;27.920;2023-10-08T08:23:14;100717.88;;;25.54;29.57
6942;BME280;3510;43.200;27.920;2023-10-08T08:25:43;100718.13;;;25.65;29.42
6942;BME280;3510;43.200;27.920;2023-10-08T08:28:21;100730.66;;;25.88;29.59
6942;BME280;3510;43.200;27.920;2023-10-08T08:30:51;100743.78;;;25.59;29.02
6942;BME280;3510;43.200;27.920;2023-10-08T08:33:20;100733.75;;;25.73;28.42
6942;BME280;3510;43.200;27.920;2023-10-08T08:35:58;100751.84;;;25.74;28.46
6942;BME280;3510;43.200;27.920;2023-10-08T08:38:26;100733.22;;;25.88;28.44
6942;BME280;3510;43.200;27.920;2023-10-08T08:41:01;100745.34;;;25.92;28.37
6942;BME280;3510;43.200;27.920;2023-10-08T08:43:36;100767.16;;;25.68;28.04
6942;BME280;3510;43.200;27.920;2023-10-08T08:46:05;100732.88;;;26.13;27.81
6942;BME280;3510;43.200;27.920;2023-10-08T08:48:34;100721.91;;;26.25;27.71
6942;BME280;3510;43.200;27.920;2023-10-08T08:51:01;100708.91;;;26.19;27.95
6942;BME280;3510;43.200;27.920;2023-10-08T08:53:30;100697.59;;;26.11;28.22
6942;BME280;3510;43.200;27.920;2023-10-08T08:55:58;100715.59;;;26.08;28.01
6942;BME280;3510;43.200;27.920;2023-10-08T08:58:25;100720.31;;;26.31;27.97
6942;BME280;3510;43.200;27.920;2023-10-08T09:00:52;100712.44;;;26.24;27.91
6942;BME280;3510;43.200;27.920;2023-10-08T09:03:22;100719.16;;;26.61;28.51
6942;BME280;3510;43.200;27.920;2023-10-08T09:05:56;100691.97;;;26.33;27.88
6942;BME280;3510;43.200;27.920;2023-10-08T09:08:24;100725.38;;;26.71;28.10
6942;BME280;3510;43.200;27.920;2023-10-08T09:10:57;100732.22;;;26.69;27.37
6942;BME280;3510;43.200;27.920;2023-10-08T09:13:27;100713.44;;;26.77;27.46
6942;BME280;3510;43.200;27.920;2023-10-08T09:15:57;100721.88;;;26.69;27.11
6942;BME280;3510;43.200;27.920;2023-10-08T09:18:31;100728.13;;;26.82;27.09
6942;BME280;3510;43.200;27.920;2023-10-08T09:21:07;100712.66;;;26.83;26.60
6942;BME280;3510;43.200;27.920;2023-10-08T09:26:09;100633.34;;;26.76;25.54
6942;BME280;3510;43.200;27.920;2023-10-08T09:28:37;100684.03;;;27.24;25.88
6942;BME280;3510;43.200;27.920;2023-10-08T09:31:10;100712.66;;;27.38;25.57
6942;BME280;3510;43.200;27.920;2023-10-08T09:33:39;100712.88;;;27.55;25.53
6942;BME280;3510;43.200;27.920;2023-10-08T09:36:08;100701.88;;;27.72;25.12
6942;BME280;3510;43.200;27.920;2023-10-08T09:38:37;100695.66;;;27.55;25.29
6942;BME280;3510;43.200;27.920;2023-10-08T09:41:04;100698.59;;;27.83;25.57
6942;BME280;3510;43.200;27.920;2023-10-08T09:43:34;100682.53;;;28.14;25.10
6942;BME280;3510;43.200;27.920;2023-10-08T09:46:09;100663.50;;;28.06;25.05
6942;BME280;3510;43.200;27.920;2023-10-08T09:48:46;100706.13;;;28.37;25.64
6942;BME280;3510;43.200;27.920;2023-10-08T09:51:14;100685.66;;;27.83;25.25
6942;BME280;3510;43.200;27.920;2023-10-08T09:53:51;100688.44;;;27.98;25.32
6942;BME280;3510;43.200;27.920;2023-10-08T09:56:20;100694.50;;;28.00;25.02
6942;BME280;3510;43.200;27.920;2023-10-08T09:58:47;100673.72;;;27.95;25.14
6942;BME280;3510;43.200;27.920;2023-10-08T10:01:17;100685.78;;;27.93;24.60
6942;BME280;3510;43.200;27.920;2023-10-08T10:03:47;100664.06;;;27.78;24.95
6942;BME280;3510;43.200;27.920;2023-10-08T10:06:15;100678.31;;;28.19;24.61
6942;BME280;3510;43.200;27.920;2023-10-08T10:08:45;100634.97;;;28.00;24.46
6942;BME280;3510;43.200;27.920;2023-10-08T10:11:12;100660.44;;;28.42;24.64
6942;BME280;3510;43.200;27.920;2023-10-08T10:13:42;100645.63;;;28.31;24.47
6942;BME280;3510;43.200;27.920;2023-10-08T10:16:10;100606.78;;;28.32;24.60
6942;BME280;3510;43.200;27.920;2023-10-08T10:18:38;100645.16;;;28.79;24.53
6942;BME280;3510;43.200;27.920;2023-10-08T10:21:30;100623.38;;;28.50;24.27
6942;BME280;3510;43.200;27.920;2023-10-08T10:23:58;100626.09;;;28.69;24.02
6942;BME280;3510;43.200;27.920;2023-10-08T10:26:27;100640.94;;;28.89;25.20
6942;BME280;3510;43.200;27.920;2023-10-08T10:29:18;100636.56;;;28.83;24.58
6942;BME280;3510;43.200;27.920;2023-10-08T10:31:46;100632.28;;;28.90;24.42
6942;BME280;3510;43.200;27.920;2023-10-08T10:34:14;100623.84;;;29.15;24.24
6942;BME280;3510;43.200;27.920;2023-10-08T10:36:44;100592.53;;;28.82;24.35
6942;BME280;3510;43.200;27.920;2023-10-08T10:39:14;100584.75;;;28.88;24.21
6942;BME280;3510;43.200;27.920;2023-10-08T10:41:44;100593.50;;;29.02;24.21
6942;BME280;3510;43.200;27.920;2023-10-08T10:44:11;100609.22;;;29.39;23.62
6942;BME280;3510;43.200;27.920;2023-10-08T10:46:40;100599.69;;;29.29;23.33
6942;BME280;3510;43.200;27.920;2023-10-08T10:49:08;100574.75;;;29.60;22.90
6942;BME280;3510;43.200;27.920;2023-10-08T10:51:47;100612.03;;;30.00;23.32
6942;BME280;3510;43.200;27.920;2023-10-08T10:54:18;100597.16;;;29.50;24.10
6942;BME280;3510;43.200;27.920;2023-10-08T10:56:49;100577.38;;;29.68;23.94
6942;BME280;3510;43.200;27.920;2023-10-08T10:59:29;100594.69;;;29.96;24.42
6942;BME280;3510;43.200;27.920;2023-10-08T11:02:03;100586.03;;;29.88;23.46
6942;BME280;3510;43.200;27.920;2023-10-08T11:04:34;100572.16;;;29.64;24.41
6942;BME280;3510;43.200;27.920;2023-10-08T11:07:15;100586.06;;;29.94;24.04
6942;BME280;3510;43.200;27.920;2023-10-08T11:09:43;100570.47;;;30.06;24.50
6942;BME280;3510;43.200;27.920;2023-10-08T11:12:13;100580.84;;;29.76;25.75
6942;BME280;3510;43.200;27.920;2023-10-08T11:14:46;100564.38;;;29.61;25.57
6942;BME280;3510;43.200;27.920;2023-10-08T11:17:13;100544.44;;;29.45;25.31
6942;BME280;3510;43.200;27.920;2023-10-08T11:19:41;100560.94;;;29.88;25.61
6942;BME280;3510;43.200;27.920;2023-10-08T11:22:11;100552.31;;;30.11;25.14
6942;BME280;3510;43.200;27.920;2023-10-08T11:24:43;100559.22;;;29.92;23.98
6942;BME280;3510;43.200;27.920;2023-10-08T11:27:14;100550.56;;;30.10;23.84
6942;BME280;3510;43.200;27.920;2023-10-08T11:29:43;100552.31;;;30.00;23.69
6942;BME280;3510;43.200;27.920;2023-10-08T11:32:12;100546.28;;;30.23;23.01
6942;BME280;3510;43.200;27.920;2023-10-08T11:34:41;100541.94;;;30.40;23.19
6942;BME280;3510;43.200;27.920;2023-10-08T11:37:11;100543.66;;;30.40;22.66
6942;BME280;3510;43.200;27.920;2023-10-08T11:39:47;100521.09;;;30.65;22.84
6942;BME280;3510;43.200;27.920;2023-10-08T11:42:15;100539.31;;;30.51;22.98
6942;BME280;3510;43.200;27.920;2023-10-08T11:45:06;100523.69;;;30.71;22.39
6942;BME280;3510;43.200;27.920;2023-10-08T11:47:45;100525.44;;;30.64;22.97
6942;BME280;3510;43.200;27.920;2023-10-08T11:50:14;100503.66;;;31.02;22.83
6942;BME280;3510;43.200;27.920;2023-10-08T11:52:45;100514.91;;;31.07;22.79
6942;BME280;3510;43.200;27.920;2023-10-08T11:55:13;100529.78;;;30.74;23.34
6942;BME280;3510;43.200;27.920;2023-10-08T11:57:45;100542.72;;;30.80;22.80
6942;BME280;3510;43.200;27.920;2023-10-08T12:00:15;100518.50;;;30.65;23.12
6942;BME280;3510;43.200;27.920;2023-10-08T12:02:52;100515.78;;;31.03;23.21
6942;BME280;3510;43.200;27.920;2023-10-08T12:05:21;100508.97;;;30.71;24.07
6942;BME280;3510;43.200;27.920;2023-10-08T12:07:51;100520.22;;;30.82;23.76
6942;BME280;3510;43.200;27.920;2023-10-08T12:10:19;100511.59;;;30.74;23.48
6942;BME280;3510;43.200;27.920;2023-10-08T12:12:49;100495.09;;;30.80;23.81
6942;BME280;3510;43.200;27.920;2023-10-08T12:15:18;100506.38;;;30.62;24.45
6942;BME280;3510;43.200;27.920;2023-10-08T12:17:47;100502.88;;;30.86;23.97
6942;BME280;3510;43.200;27.920;2023-10-08T12:20:34;100501.13;;;30.83;23.02
6942;BME280;3510;43.200;27.920;2023-10-08T12:23:03;100517.53;;;31.04;22.95
6942;BME280;3510;43.200;27.920;2023-10-08T12:25:31;100501.13;;;30.87;23.02
6942;BME280;3510;43.200;27.920;2023-10-08T12:27:59;100493.22;;;31.06;22.73
6942;BME280;3510;43.200;27.920;2023-10-08T12:30:29;100495.81;;;31.11;22.65
6942;BME280;3510;43.200;27.920;2023-10-08T12:32:58;100475.13;;;30.88;22.93
6942;BME280;3510;43.200;27.920;2023-10-08T12:35:27;100496.72;;;31.05;23.44
6942;BME280;3510;43.200;27.920;2023-10-08T12:37:55;100481.16;;;30.92;23.96
6942;BME280;3510;43.200;27.920;2023-10-08T12:40:22;100494.03;;;31.21;24.03
6942;BME280;3510;43.200;27.920;2023-10-08T12:42:52;100464.59;;;31.19;24.43
6942;BME280;3510;43.200;27.920;2023-10-08T12:45:20;100476.84;;;30.92;25.26
6942;BME280;3510;43.200;27.920;2023-10-08T12:47:48;100479.47;;;30.84;24.67
6942;BME280;3510;43.200;27.920;2023-10-08T12:50:16;100477.75;;;30.77;24.34
6942;BME280;3510;43.200;27.920;2023-10-08T12:52:48;100482.84;;;31.08;24.82
6942;BME280;3510;43.200;27.920;2023-10-08T12:55:21;100476.91;;;30.80;24.56
6942;BME280;3510;43.200;27.920;2023-10-08T12:57:52;100467.25;;;31.02;24.18
6942;BME280;3510;43.200;27.920;2023-10-08T13:00:22;100473.44;;;30.66;24.48
6942;BME280;3510;43.200;27.920;2023-10-08T13:02:51;100458.63;;;30.92;24.65
6942;BME280;3510;43.200;27.920;2023-10-08T13:05:23;100460.44;;;30.79;24.60
6942;BME280;3510;43.200;27.920;2023-10-08T13:07:54;100432.81;;;30.49;24.57
6942;BME280;3510;43.200;27.920;2023-10-08T13:10:22;100458.69;;;30.84;24.52
6942;BME280;3510;43.200;27.920;2023-10-08T13:12:49;100420.59;;;30.71;24.39
6942;BME280;3510;43.200;27.920;2023-10-08T13:15:17;100455.16;;;31.01;24.15
6942;BME280;3510;43.200;27.920;2023-10-08T13:17:44;100433.44;;;31.03;24.22
6942;BME280;3510;43.200;27.920;2023-10-08T13:22:38;100469.94;;;30.87;23.40
6942;BME280;3510;43.200;27.920;2023-10-08T13:25:06;100456.84;;;31.03;23.38